Time;durP1;ratioP1;P1;durP2;ratioP2;P2;SDS_P1;SDS_P2;PMS_P1;PMS_P2;Temp;Humidity;BMP_temperature;BMP_pressure;BME280_temperature;BME280_humidity;BME280_pressure;Samples;Min_cycle;Max_cycle;Signal;HPM_P1;HPM_P2
2022/02/05 00:02:44;;;;;;;0.10;0.10;;;;;;;;;;5030112;28;20033;-73
2022/02/05 00:05:12;;;;;;;0.00;0.00;;;;;;;;;;5028479;28;20479;-73
2022/02/05 00:07:44;;;;;;;0.10;0.10;;;;;;;;;;5033689;28;20046;-73
2022/02/05 00:13:24;;;;;;;0.10;0.10;;;;;;;;;;5028889;28;20323;-72
2022/02/05 00:38:15;;;;;;;0.20;0.20;;;;;;;;;;5028552;28;20079;-73
2022/02/05 00:43:08;;;;;;;0.00;0.00;;;;;;;;;;5047374;28;20786;-73
2022/02/05 00:45:38;;;;;;;0.08;0.08;;;;;;;;;;5036189;28;20044;-73
2022/02/05 00:48:04;;;;;;;0.00;0.00;;;;;;;;;;5043787;28;20032;-72
2022/02/05 00:50:33;;;;;;;0.35;0.35;;;;;;;;;;5048836;28;20040;-73
2022/02/05 00:53:44;;;;;;;0.10;0.10;;;;;;;;;;5032884;28;20054;-73
2022/02/05 00:55:56;;;;;;;0.40;0.30;;;;;;;;;;5023380;28;20033;-73
2022/02/05 00:58:22;;;;;;;0.17;0.17;;;;;;;;;;5047073;28;20059;-73
2022/02/05 01:00:48;;;;;;;0.10;0.10;;;;;;;;;;5044087;28;20033;-73
2022/02/05 01:03:14;;;;;;;0.20;0.20;;;;;;;;;;5036873;28;20222;-73
2022/02/05 01:05:42;;;;;;;0.10;0.10;;;;;;;;;;5029134;28;20480;-73
2022/02/05 01:08:08;;;;;;;0.08;0.08;;;;;;;;;;5025152;28;20037;-73
2022/02/05 01:10:34;;;;;;;0.15;0.15;;;;;;;;;;5030363;28;20423;-73
2022/02/05 01:13:05;;;;;;;0.08;0.08;;;;;;;;;;5051120;28;20543;-73
2022/02/05 01:15:37;;;;;;;;;;;;;;;;;;5036354;28;20025;-73
2022/02/05 01:18:07;;;;;;;0.20;0.20;;;;;;;;;;5034194;28;20280;-72
2022/02/05 01:21:05;;;;;;;0.10;0.10;;;;;;;;;;5039235;28;20083;-74
2022/02/05 01:23:52;;;;;;;13.55;0.88;;;;;;;;;;5035536;28;20025;-73
2022/02/05 01:26:26;;;;;;;1.45;1.23;;;;;;;;;;5031937;28;20025;-74
2022/02/05 01:28:59;;;;;;;0.25;0.25;;;;;;;;;;5037688;28;20040;-73
2022/02/05 01:31:30;;;;;;;0.00;0.00;;;;;;;;;;5032063;28;20022;-73
2022/02/05 01:34:08;;;;;;;0.17;0.17;;;;;;;;;;5036548;28;20087;-73
2022/02/05 01:39:29;;;;;;;0.28;0.28;;;;;;;;;;5034574;28;20500;-73
2022/02/05 01:48:45;;;;;;;5.32;1.77;;;;;;;;;;5030505;28;20753;-73
2022/02/05 01:50:55;;;;;;;0.10;0.10;;;;;;;;;;5032995;28;20411;-73
2022/02/05 01:58:50;;;;;;;0.00;0.00;;;;;;;;;;5037565;28;20040;-73
2022/02/05 02:11:59;;;;;;;0.00;0.00;;;;;;;;;;5016760;28;20403;-72
2022/02/05 02:14:37;;;;;;;0.80;0.30;;;;;;;;;;5042934;28;20030;-72
2022/02/05 02:20:18;;;;;;;0.50;0.50;;;;;;;;;;5043221;28;20048;-73
2022/02/05 02:23:05;;;;;;;0.00;0.00;;;;;;;;;;5045718;28;20045;-73
2022/02/05 02:25:52;;;;;;;0.20;0.20;;;;;;;;;;5030060;28;20108;-72
2022/02/05 02:28:26;;;;;;;0.98;0.70;;;;;;;;;;5044979;28;20033;-73
2022/02/05 02:31:07;;;;;;;0.00;0.00;;;;;;;;;;5035429;28;20032;-73
2022/02/05 02:33:38;;;;;;;;;;;;;;;;;;5038374;28;20440;-73
2022/02/05 02:36:12;;;;;;;6.85;1.05;;;;;;;;;;5037583;28;19916;-73
2022/02/05 02:38:46;;;;;;;0.30;0.30;;;;;;;;;;5026819;28;20029;-73
2022/02/05 02:41:22;;;;;;;0.03;0.03;;;;;;;;;;5028099;28;20370;-72
2022/02/05 02:43:48;;;;;;;0.00;0.00;;;;;;;;;;5030965;28;20026;-73
2022/02/05 02:46:14;;;;;;;0.10;0.10;;;;;;;;;;5030968;28;20025;-72
2022/02/05 02:48:44;;;;;;;0.03;0.03;;;;;;;;;;5031746;28;20748;-73
2022/02/05 02:56:33;;;;;;;0.10;0.10;;;;;;;;;;5025342;28;20750;-72
2022/02/05 02:59:07;;;;;;;3.78;2.60;;;;;;;;;;5032837;28;20383;-73
2022/02/05 03:01:36;;;;;;;0.00;0.00;;;;;;;;;;5027808;28;20044;-73
2022/02/05 03:04:02;;;;;;;0.00;0.00;;;;;;;;;;5031315;28;20231;-73
2022/02/05 03:06:28;;;;;;;5.82;1.13;;;;;;;;;;5034791;28;20649;-73
2022/02/05 03:08:54;;;;;;;0.10;0.10;;;;;;;;;;5033111;28;20036;-73
2022/02/05 03:11:21;;;;;;;0.73;0.73;;;;;;;;;;5028984;28;20550;-72
2022/02/05 03:13:47;;;;;;;0.05;0.05;;;;;;;;;;5034235;28;20029;-73
2022/02/05 03:16:26;;;;;;;0.10;0.10;;;;;;;;;;5030106;28;20109;-72
2022/02/05 03:21:24;;;;;;;4.28;0.28;;;;;;;;;;5026810;28;20664;-73
2022/02/05 03:23:50;;;;;;;0.00;0.00;;;;;;;;;;5040430;28;20036;-73
2022/02/05 03:26:16;;;;;;;0.00;0.00;;;;;;;;;;5031819;28;20395;-73
2022/02/05 03:28:42;;;;;;;0.10;0.10;;;;;;;;;;5030310;28;20029;-73
2022/02/05 03:31:08;;;;;;;1.45;1.25;;;;;;;;;;5038767;28;20029;-73
2022/02/05 03:33:34;;;;;;;0.15;0.15;;;;;;;;;;5034357;28;20022;-73
2022/02/05 03:36:00;;;;;;;0.30;0.30;;;;;;;;;;5029411;28;20196;-73
2022/02/05 03:38:29;;;;;;;0.00;0.00;;;;;;;;;;5029077;28;20038;-72
2022/02/05 03:40:54;;;;;;;0.08;0.08;;;;;;;;;;5036686;28;20517;-73
2022/02/05 03:43:20;;;;;;;0.00;0.00;;;;;;;;;;5041371;28;20112;-73
2022/02/05 03:45:46;;;;;;;7.15;1.13;;;;;;;;;;5032093;28;20032;-73
2022/02/05 03:48:12;;;;;;;0.05;0.05;;;;;;;;;;5034643;28;20435;-73
2022/02/05 03:50:38;;;;;;;0.00;0.00;;;;;;;;;;5037185;28;20033;-72
2022/02/05 03:53:07;;;;;;;0.08;0.08;;;;;;;;;;5036769;28;20415;-73
2022/02/05 03:55:34;;;;;;;0.10;0.10;;;;;;;;;;5029272;28;20026;-73
2022/02/05 03:58:00;;;;;;;0.00;0.00;;;;;;;;;;5033638;28;20109;-72
2022/02/05 04:00:26;;;;;;;0.00;0.00;;;;;;;;;;5030385;28;20603;-73
2022/02/05 04:02:52;;;;;;;0.38;0.38;;;;;;;;;;5032907;28;20475;-73
2022/02/05 04:05:18;;;;;;;0.32;0.32;;;;;;;;;;5027377;28;20026;-73
2022/02/05 04:07:48;;;;;;;0.05;0.05;;;;;;;;;;5037866;28;20115;-73
2022/02/05 04:10:20;;;;;;;0.32;0.32;;;;;;;;;;5040836;28;20107;-73
2022/02/05 04:18:15;;;;;;;0.05;0.05;;;;;;;;;;5028601;28;20040;-72
2022/02/05 04:20:41;;;;;;;4.53;0.45;;;;;;;;;;5025421;28;20033;-72
2022/02/05 04:23:08;;;;;;;0.40;0.20;;;;;;;;;;5024031;28;20022;-73
2022/02/05 04:25:34;;;;;;;0.00;0.00;;;;;;;;;;5026697;28;20090;-73
2022/02/05 04:28:00;;;;;;;0.05;0.05;;;;;;;;;;5027320;28;20029;-73
2022/02/05 04:30:28;;;;;;;2.35;0.98;;;;;;;;;;5028672;28;20025;-72
2022/02/05 04:32:54;;;;;;;0.50;0.50;;;;;;;;;;5024201;28;20037;-72
2022/02/05 04:35:20;;;;;;;0.03;0.03;;;;;;;;;;5028022;28;20017;-73
2022/02/05 04:37:50;;;;;;;0.00;0.00;;;;;;;;;;5028025;28;20029;-73
2022/02/05 04:40:32;;;;;;;0.10;0.10;;;;;;;;;;5027457;28;20555;-72
2022/02/05 04:48:38;;;;;;;0.10;0.10;;;;;;;;;;5025854;28;20030;-73
2022/02/05 04:51:30;;;;;;;0.10;0.10;;;;;;;;;;5035109;28;20045;-73
2022/02/05 04:59:12;;;;;;;0.10;0.10;;;;;;;;;;5029381;28;20064;-73
2022/02/05 05:09:27;;;;;;;0.10;0.10;;;;;;;;;;5027153;28;20045;-73
2022/02/05 05:20:07;;;;;;;0.43;0.43;;;;;;;;;;5021219;28;20598;-73
2022/02/05 05:22:33;;;;;;;0.10;0.10;;;;;;;;;;5028419;28;20030;-72
2022/02/05 05:25:00;;;;;;;0.25;0.25;;;;;;;;;;5034365;28;20063;-73
2022/02/05 05:27:26;;;;;;;0.08;0.08;;;;;;;;;;5031364;28;20119;-73
2022/02/05 05:29:52;;;;;;;0.17;0.17;;;;;;;;;;5026363;28;20029;-73
2022/02/05 05:32:18;;;;;;;0.75;0.22;;;;;;;;;;5025511;28;20028;-72
2022/02/05 05:34:44;;;;;;;4.30;0.82;;;;;;;;;;5027004;28;20414;-73
2022/02/05 05:37:10;;;;;;;0.55;0.55;;;;;;;;;;5023879;28;20482;-73
2022/02/05 05:39:38;;;;;;;0.00;0.00;;;;;;;;;;5028473;28;20101;-73
2022/02/05 05:42:07;;;;;;;0.20;0.20;;;;;;;;;;5039345;28;20040;-72
2022/02/05 05:47:31;;;;;;;0.10;0.10;;;;;;;;;;5027102;28;20567;-72
2022/02/05 05:50:10;;;;;;;0.00;0.00;;;;;;;;;;5028054;28;20025;-73
2022/02/05 05:52:37;;;;;;;0.00;0.00;;;;;;;;;;5025646;28;20068;-71
2022/02/05 05:55:03;;;;;;;0.00;0.00;;;;;;;;;;5023222;28;20029;-71
2022/02/05 05:57:29;;;;;;;1.23;0.93;;;;;;;;;;5029433;28;20502;-71
2022/02/05 05:59:55;;;;;;;0.20;0.20;;;;;;;;;;5027322;28;20037;-71
2022/02/05 06:02:21;;;;;;;0.22;0.22;;;;;;;;;;5028319;28;20029;-71
2022/02/05 06:04:47;;;;;;;0.88;0.80;;;;;;;;;;5028520;28;20079;-71
2022/02/05 06:07:13;;;;;;;0.10;0.10;;;;;;;;;;5028530;28;20033;-71
2022/02/05 06:09:43;;;;;;;0.30;0.30;;;;;;;;;;5027647;28;20499;-72
2022/02/05 06:12:09;;;;;;;0.10;0.10;;;;;;;;;;5024429;28;20030;-71
2022/02/05 06:14:35;;;;;;;0.40;0.38;;;;;;;;;;5027990;28;20125;-72
2022/02/05 06:17:08;;;;;;;0.00;0.00;;;;;;;;;;5028705;28;20576;-72
2022/02/05 06:19:35;;;;;;;0.20;0.20;;;;;;;;;;5026751;28;20033;-72
2022/02/05 06:22:01;;;;;;;0.30;0.30;;;;;;;;;;5027417;28;20025;-72
2022/02/05 06:24:27;;;;;;;0.10;0.10;;;;;;;;;;5027924;28;20041;-72
2022/02/05 06:26:54;;;;;;;0.10;0.10;;;;;;;;;;5028242;28;20033;-71
2022/02/05 06:29:20;;;;;;;0.85;0.40;;;;;;;;;;5025670;28;20492;-72
2022/02/05 06:31:46;;;;;;;0.38;0.38;;;;;;;;;;5028858;28;20032;-72
2022/02/05 06:34:12;;;;;;;0.00;0.00;;;;;;;;;;5026458;28;20074;-72
2022/02/05 06:36:38;;;;;;;0.10;0.10;;;;;;;;;;5027507;28;20069;-73
2022/02/05 06:39:04;;;;;;;0.10;0.10;;;;;;;;;;5028072;28;20090;-80
2022/02/05 06:41:30;;;;;;;0.13;0.13;;;;;;;;;;5026736;28;20116;-72
2022/02/05 06:43:55;;;;;;;0.40;0.40;;;;;;;;;;5026373;28;20037;-72
2022/02/05 06:46:21;;;;;;;0.10;0.10;;;;;;;;;;5026152;28;20171;-72
2022/02/05 06:48:47;;;;;;;12.10;0.90;;;;;;;;;;5028066;28;20025;-72
2022/02/05 06:51:13;;;;;;;1.42;0.98;;;;;;;;;;5028042;28;20484;-71
2022/02/05 06:53:39;;;;;;;0.00;0.00;;;;;;;;;;5027652;28;20041;-72
2022/02/05 06:56:05;;;;;;;0.30;0.30;;;;;;;;;;5034829;28;20048;-72
2022/02/05 06:58:31;;;;;;;0.15;0.15;;;;;;;;;;5036263;28;20029;-72
2022/02/05 07:00:57;;;;;;;0.10;0.10;;;;;;;;;;5032011;28;20710;-72
2022/02/05 07:03:23;;;;;;;0.52;0.52;;;;;;;;;;5033274;28;20081;-72
2022/02/05 07:05:50;;;;;;;0.00;0.00;;;;;;;;;;5034537;28;20021;-72
2022/02/05 07:08:16;;;;;;;0.00;0.00;;;;;;;;;;5030748;28;20079;-73
2022/02/05 07:10:42;;;;;;;0.00;0.00;;;;;;;;;;5034774;28;20116;-72
2022/02/05 07:13:14;;;;;;;0.43;0.43;;;;;;;;;;5034741;28;20021;-72
2022/02/05 07:15:56;;;;;;;0.10;0.10;;;;;;;;;;5035423;28;20052;-72
2022/02/05 07:18:32;;;;;;;0.10;0.10;;;;;;;;;;5033917;28;20624;-71
2022/02/05 07:21:10;;;;;;;0.10;0.10;;;;;;;;;;5028885;28;20029;-71
2022/02/05 07:23:49;;;;;;;0.00;0.00;;;;;;;;;;5032585;28;20060;-71
2022/02/05 07:29:16;;;;;;;0.00;0.00;;;;;;;;;;5028214;28;20040;-72
2022/02/05 07:31:41;;;;;;;;;;;;;;;;;;5035297;28;20028;-72
2022/02/05 07:34:07;;;;;;;0.03;0.03;;;;;;;;;;5034563;28;19909;-71
2022/02/05 07:36:33;;;;;;;0.10;0.10;;;;;;;;;;5033449;28;20029;-71
2022/02/05 07:38:59;;;;;;;0.10;0.10;;;;;;;;;;5030890;28;21227;-72
2022/02/05 07:41:25;;;;;;;0.20;0.20;;;;;;;;;;5034045;28;20048;-72
2022/02/05 07:43:51;;;;;;;0.10;0.10;;;;;;;;;;5032367;28;20053;-71
2022/02/05 07:46:17;;;;;;;0.03;0.03;;;;;;;;;;5030683;28;20464;-71
2022/02/05 07:48:43;;;;;;;0.20;0.20;;;;;;;;;;5035596;28;20051;-72
2022/02/05 07:51:10;;;;;;;0.10;0.10;;;;;;;;;;5029927;28;20025;-72
2022/02/05 07:53:36;;;;;;;0.10;0.10;;;;;;;;;;5027756;28;20030;-72
2022/02/05 07:56:03;;;;;;;0.10;0.10;;;;;;;;;;5027184;28;20025;-71
2022/02/05 07:58:30;;;;;;;0.10;0.10;;;;;;;;;;5027234;28;20051;-72
2022/02/05 08:00:55;;;;;;;0.10;0.10;;;;;;;;;;5026483;28;20412;-72
2022/02/05 08:03:21;;;;;;;0.10;0.10;;;;;;;;;;5026108;28;20487;-72
2022/02/05 08:05:48;;;;;;;0.10;0.10;;;;;;;;;;5027318;28;20051;-72
2022/02/05 08:08:17;;;;;;;0.00;0.00;;;;;;;;;;5026782;28;20021;-72
2022/02/05 08:10:54;;;;;;;0.10;0.10;;;;;;;;;;5026381;28;20492;-72
2022/02/05 08:13:20;;;;;;;0.20;0.20;;;;;;;;;;5025482;28;20033;-72
2022/02/05 08:15:54;;;;;;;0.20;0.20;;;;;;;;;;5025288;28;20025;-72
2022/02/05 08:18:20;;;;;;;0.10;0.10;;;;;;;;;;5027759;28;20524;-72
2022/02/05 08:20:46;;;;;;;0.57;0.57;;;;;;;;;;5026851;28;20064;-72
2022/02/05 08:23:12;;;;;;;0.05;0.05;;;;;;;;;;5027317;28;20484;-72
2022/02/05 08:25:37;;;;;;;0.10;0.10;;;;;;;;;;5030501;28;20033;-72
2022/02/05 08:28:03;;;;;;;0.00;0.00;;;;;;;;;;5026618;28;20025;-71
2022/02/05 08:30:29;;;;;;;0.08;0.08;;;;;;;;;;5030181;28;20365;-72
2022/02/05 08:32:58;;;;;;;0.45;0.45;;;;;;;;;;5028117;28;20032;-72
2022/02/05 08:35:24;;;;;;;0.00;0.00;;;;;;;;;;5027104;28;20148;-70
2022/02/05 08:37:50;;;;;;;0.05;0.05;;;;;;;;;;5027388;28;20124;-72
2022/02/05 08:40:16;;;;;;;0.03;0.03;;;;;;;;;;5026326;28;20033;-70
2022/02/05 08:42:42;;;;;;;0.10;0.10;;;;;;;;;;5028052;28;20040;-70
2022/02/05 08:45:09;;;;;;;0.22;0.22;;;;;;;;;;5028999;28;20037;-70
2022/02/05 08:47:35;;;;;;;0.05;0.05;;;;;;;;;;5027242;28;20482;-69
2022/02/05 08:50:01;;;;;;;0.10;0.10;;;;;;;;;;5027574;28;20033;-71
2022/02/05 08:52:28;;;;;;;0.00;0.00;;;;;;;;;;5027348;28;20042;-71
2022/02/05 08:54:54;;;;;;;0.10;0.10;;;;;;;;;;5030449;28;20102;-73
2022/02/05 08:57:20;;;;;;;0.15;0.15;;;;;;;;;;5033613;28;20029;-71
2022/02/05 09:02:40;;;;;;;0.08;0.08;;;;;;;;;;5031357;28;20036;-72
2022/02/05 09:05:13;;;;;;;0.10;0.10;;;;;;;;;;5027103;28;20033;-73
2022/02/05 09:07:41;;;;;;;0.05;0.05;;;;;;;;;;5030045;28;20037;-70
2022/02/05 09:10:25;;;;;;;3.08;2.17;;;;;;;;;;5027834;28;20049;-70
2022/02/05 09:13:38;;;;;;;0.08;0.08;;;;;;;;;;5025665;28;20357;-71
2022/02/05 09:15:44;;;;;;;0.10;0.10;;;;;;;;;;5023027;28;20150;-72
2022/02/05 09:18:10;;;;;;;0.08;0.08;;;;;;;;;;5020960;28;20124;-73
2022/02/05 09:20:36;;;;;;;0.00;0.00;;;;;;;;;;5026190;28;20141;-73
2022/02/05 09:23:02;;;;;;;0.10;0.10;;;;;;;;;;5026681;28;20028;-74
2022/02/05 09:25:29;;;;;;;0.10;0.10;;;;;;;;;;5026735;28;20025;-74
2022/02/05 09:27:55;;;;;;;0.20;0.20;;;;;;;;;;5032751;28;20059;-73
2022/02/05 09:30:30;;;;;;;0.00;0.00;;;;;;;;;;5024798;28;20034;-73
2022/02/05 09:32:56;;;;;;;0.00;0.00;;;;;;;;;;5026338;28;20028;-73
2022/02/05 09:35:22;;;;;;;0.47;0.47;;;;;;;;;;5030409;28;20021;-73
2022/02/05 09:37:48;;;;;;;0.10;0.05;;;;;;;;;;5032191;28;20063;-73
2022/02/05 09:40:18;;;;;;;0.00;0.00;;;;;;;;;;5023873;28;20120;-72
2022/02/05 09:42:47;;;;;;;0.17;0.17;;;;;;;;;;5028908;28;20025;-74
2022/02/05 09:45:13;;;;;;;0.30;0.30;;;;;;;;;;5029397;28;20033;-73
2022/02/05 09:47:39;;;;;;;0.00;0.00;;;;;;;;;;5035315;28;20029;-73
2022/02/05 09:50:06;;;;;;;0.00;0.00;;;;;;;;;;5029064;28;20029;-73
2022/02/05 09:52:32;;;;;;;0.05;0.05;;;;;;;;;;5029741;28;20058;-73
2022/02/05 09:54:58;;;;;;;0.38;0.38;;;;;;;;;;5027907;28;20115;-75
2022/02/05 09:57:24;;;;;;;0.10;0.10;;;;;;;;;;5024637;28;20404;-75
2022/02/05 09:59:58;;;;;;;0.08;0.08;;;;;;;;;;5031319;28;20028;-75
2022/02/05 10:02:25;;;;;;;0.95;0.95;;;;;;;;;;5026056;28;20659;-74
2022/02/05 10:04:52;;;;;;;0.20;0.20;;;;;;;;;;5023241;28;20767;-73
2022/02/05 10:07:18;;;;;;;30.13;0.93;;;;;;;;;;5032112;28;20037;-74
2022/02/05 10:09:57;;;;;;;2.50;0.63;;;;;;;;;;5022928;28;20032;-74
2022/02/05 10:12:23;;;;;;;0.52;0.52;;;;;;;;;;5030642;28;20504;-74
2022/02/05 10:14:55;;;;;;;0.00;0.00;;;;;;;;;;5024296;28;20033;-74
2022/02/05 10:17:21;;;;;;;0.10;0.10;;;;;;;;;;5025350;28;20032;-74
2022/02/05 10:19:51;;;;;;;1.65;1.15;;;;;;;;;;5025648;28;20788;-74
2022/02/05 10:22:19;;;;;;;0.10;0.10;;;;;;;;;;5032867;28;20495;-74
2022/02/05 10:25:08;;;;;;;0.63;0.63;;;;;;;;;;5033615;28;20048;-73
2022/02/05 10:27:42;;;;;;;0.00;0.00;;;;;;;;;;5028007;28;20033;-74
2022/02/05 10:30:14;;;;;;;0.10;0.10;;;;;;;;;;5020106;28;20038;-73
2022/02/05 10:32:48;;;;;;;0.20;0.20;;;;;;;;;;5020092;28;20049;-73
2022/02/05 10:35:39;;;;;;;0.32;0.32;;;;;;;;;;5016780;28;20029;-72
2022/02/05 10:40:48;;;;;;;0.00;0.00;;;;;;;;;;5020522;28;20045;-72
2022/02/05 10:43:14;;;;;;;0.00;0.00;;;;;;;;;;5020038;28;20063;-71
2022/02/05 10:45:44;;;;;;;0.05;0.05;;;;;;;;;;5019522;28;20124;-71
2022/02/05 10:48:13;;;;;;;0.00;0.00;;;;;;;;;;5018180;28;20036;-71
2022/02/05 10:51:01;;;;;;;0.10;0.10;;;;;;;;;;5017615;28;20024;-72
2022/02/05 10:53:32;;;;;;;0.30;0.30;;;;;;;;;;4998052;28;20185;-70
2022/02/05 11:07:13;;;;;;;0.00;0.00;;;;;;;;;;4999198;28;20041;-70
2022/02/05 11:09:39;;;;;;;0.10;0.10;;;;;;;;;;4990541;28;20107;-71
2022/02/05 11:12:48;;;;;;;0.00;0.00;;;;;;;;;;4998641;28;22001;-70
2022/02/05 11:20:10;;;;;;;0.10;0.10;;;;;;;;;;5004980;28;20034;-72
2022/02/05 11:22:37;;;;;;;0.10;0.10;;;;;;;;;;5000624;28;20029;-73
2022/02/05 11:25:04;;;;;;;0.57;0.57;;;;;;;;;;5002732;28;20037;-70
2022/02/05 11:27:30;;;;;;;0.10;0.10;;;;;;;;;;4997085;28;20033;-70
2022/02/05 11:29:56;;;;;;;0.00;0.00;;;;;;;;;;5003211;28;20041;-70
2022/02/05 11:32:31;;;;;;;1.00;1.00;;;;;;;;;;5004855;28;20022;-70
2022/02/05 11:35:00;;;;;;;0.10;0.10;;;;;;;;;;5003041;28;20034;-71
2022/02/05 11:37:26;;;;;;;0.00;0.00;;;;;;;;;;5000165;28;20033;-71
2022/02/05 11:39:53;;;;;;;0.00;0.00;;;;;;;;;;4995214;28;20030;-71
2022/02/05 11:42:27;;;;;;;0.10;0.10;;;;;;;;;;5009781;28;20670;-70
2022/02/05 11:44:53;;;;;;;0.30;0.30;;;;;;;;;;5003939;28;20393;-71
2022/02/05 11:47:19;;;;;;;0.35;0.30;;;;;;;;;;5001867;28;20655;-70
2022/02/05 11:49:55;;;;;;;0.00;0.00;;;;;;;;;;4988413;28;20065;-70
2022/02/05 11:52:37;;;;;;;0.00;0.00;;;;;;;;;;5013228;28;20460;-70
2022/02/05 11:55:04;;;;;;;0.57;0.57;;;;;;;;;;5021906;28;20038;-71
2022/02/05 11:57:43;;;;;;;0.47;0.47;;;;;;;;;;5020108;28;20032;-70
2022/02/05 12:00:24;;;;;;;0.05;0.05;;;;;;;;;;5026118;28;20561;-71
2022/02/05 12:02:57;;;;;;;0.35;0.35;;;;;;;;;;5022241;28;20117;-71
2022/02/05 12:05:27;;;;;;;0.08;0.08;;;;;;;;;;5020520;28;20029;-72
2022/02/05 12:08:05;;;;;;;1.65;0.85;;;;;;;;;;5015349;28;20108;-71
2022/02/05 12:10:44;;;;;;;0.00;0.00;;;;;;;;;;5021796;28;20086;-71
2022/02/05 12:13:21;;;;;;;0.40;0.40;;;;;;;;;;5013798;28;20030;-72
2022/02/05 12:15:48;;;;;;;0.95;0.68;;;;;;;;;;5014010;28;20707;-71
2022/02/05 12:18:22;;;;;;;0.13;0.13;;;;;;;;;;5016841;28;20037;-71
2022/02/05 12:21:01;;;;;;;0.00;0.00;;;;;;;;;;5024723;28;20104;-73
2022/02/05 12:26:37;;;;;;;0.00;0.00;;;;;;;;;;5024666;28;20107;-71
2022/02/05 12:29:22;;;;;;;0.00;0.00;;;;;;;;;;5013660;28;20571;-71
2022/02/05 12:31:52;;;;;;;0.00;0.00;;;;;;;;;;5024785;28;20116;-72
2022/02/05 12:34:21;;;;;;;0.10;0.10;;;;;;;;;;5027990;28;20057;-71
2022/02/05 12:37:13;;;;;;;2.58;0.80;;;;;;;;;;5017866;28;20444;-71
2022/02/05 12:39:39;;;;;;;0.10;0.10;;;;;;;;;;4990471;28;20049;-72
2022/02/05 12:42:09;;;;;;;0.10;0.10;;;;;;;;;;5028780;28;20132;-72
2022/02/05 12:44:38;;;;;;;0.00;0.00;;;;;;;;;;5027738;28;20086;-72
2022/02/05 12:47:08;;;;;;;2.03;0.63;;;;;;;;;;5028371;28;20357;-73
2022/02/05 12:49:46;;;;;;;0.40;0.40;;;;;;;;;;5026161;28;20096;-72
2022/02/05 12:52:13;;;;;;;0.20;0.20;;;;;;;;;;5022878;28;20099;-72
2022/02/05 12:54:48;;;;;;;0.10;0.10;;;;;;;;;;5021337;28;20032;-72
2022/02/05 12:57:18;;;;;;;2.17;0.82;;;;;;;;;;5029469;28;20522;-72
2022/02/05 12:59:44;;;;;;;0.00;0.00;;;;;;;;;;5024586;28;20027;-72
2022/02/05 13:02:13;;;;;;;0.35;0.35;;;;;;;;;;5022239;28;20079;-72
2022/02/05 13:04:43;;;;;;;0.08;0.08;;;;;;;;;;5022316;28;20029;-71
2022/02/05 13:07:11;;;;;;;0.65;0.55;;;;;;;;;;5029993;28;20033;-73
2022/02/05 13:09:48;;;;;;;0.10;0.10;;;;;;;;;;5031167;28;20026;-73
2022/02/05 13:12:14;;;;;;;0.00;0.00;;;;;;;;;;5030534;28;20375;-72
2022/02/05 13:14:53;;;;;;;0.00;0.00;;;;;;;;;;5026752;28;20022;-72
2022/02/05 13:17:25;;;;;;;0.03;0.03;;;;;;;;;;5030489;28;20163;-71
2022/02/05 13:20:13;;;;;;;0.00;0.00;;;;;;;;;;5020996;28;20080;-72
2022/02/05 13:28:42;;;;;;;0.15;0.15;;;;;;;;;;4987603;28;21187;-73
2022/02/05 13:34:12;;;;;;;0.10;0.10;;;;;;;;;;5008428;28;20478;-73
2022/02/05 13:36:49;;;;;;;0.20;0.20;;;;;;;;;;5030512;28;20044;-72
2022/02/05 13:42:20;;;;;;;2.17;1.45;;;;;;;;;;5027795;28;20059;-73
2022/02/05 13:47:42;;;;;;;0.65;0.30;;;;;;;;;;5030356;28;20037;-73
2022/02/05 13:50:08;;;;;;;0.10;0.10;;;;;;;;;;5012335;28;20480;-73
2022/02/05 13:52:39;;;;;;;0.10;0.10;;;;;;;;;;5031478;28;20293;-72
2022/02/05 13:55:21;;;;;;;0.10;0.10;;;;;;;;;;5027419;28;20056;-73
2022/02/05 13:57:55;;;;;;;0.10;0.10;;;;;;;;;;5028981;28;20114;-70
2022/02/05 14:00:21;;;;;;;0.20;0.20;;;;;;;;;;5028377;28;20484;-73
2022/02/05 14:02:56;;;;;;;0.52;0.52;;;;;;;;;;5028333;28;20033;-73
2022/02/05 14:05:32;;;;;;;0.00;0.00;;;;;;;;;;5028970;28;20535;-72
2022/02/05 14:07:58;;;;;;;0.03;0.03;;;;;;;;;;5030567;28;20030;-73
2022/02/05 14:10:24;;;;;;;1.85;1.35;;;;;;;;;;5024528;28;20597;-75
2022/02/05 14:12:57;;;;;;;1.70;0.52;;;;;;;;;;5026596;28;20107;-73
2022/02/05 14:15:25;;;;;;;9.95;1.65;;;;;;;;;;5027854;28;20053;-75
2022/02/05 14:18:04;;;;;;;0.08;0.08;;;;;;;;;;5023863;28;20032;-75
2022/02/05 14:20:36;;;;;;;0.65;0.47;;;;;;;;;;5024758;28;20033;-75
2022/02/05 14:23:06;;;;;;;0.10;0.10;;;;;;;;;;5026098;28;21864;-72
2022/02/05 14:25:56;;;;;;;0.75;0.47;;;;;;;;;;5034122;28;20510;-73
2022/02/05 14:28:40;;;;;;;0.05;0.05;;;;;;;;;;5025752;28;20033;-74
2022/02/05 14:31:11;;;;;;;0.10;0.10;;;;;;;;;;5031152;28;20029;-73
2022/02/05 14:42:07;;;;;;;0.98;0.95;;;;;;;;;;5029797;28;20087;-72
2022/02/05 14:44:34;;;;;;;0.25;0.25;;;;;;;;;;5029334;28;20029;-73
2022/02/05 14:47:00;;;;;;;0.00;0.00;;;;;;;;;;5030815;28;20041;-73
2022/02/05 14:49:26;;;;;;;0.10;0.10;;;;;;;;;;5034610;28;20021;-73
2022/02/05 14:51:52;;;;;;;0.10;0.10;;;;;;;;;;5026923;28;20116;-73
2022/02/05 14:54:19;;;;;;;0.00;0.00;;;;;;;;;;5032585;28;20029;-73
2022/02/05 14:56:45;;;;;;;0.20;0.20;;;;;;;;;;5037292;28;20032;-73
2022/02/05 14:59:11;;;;;;;0.15;0.15;;;;;;;;;;5040668;28;20729;-73
2022/02/05 15:01:37;;;;;;;0.13;0.13;;;;;;;;;;5023592;28;20034;-73
2022/02/05 15:04:04;;;;;;;0.10;0.10;;;;;;;;;;5016474;28;20017;-77
2022/02/05 15:06:32;;;;;;;0.10;0.10;;;;;;;;;;5030311;28;20499;-78
2022/02/05 15:08:59;;;;;;;0.40;0.40;;;;;;;;;;5025607;28;20036;-76
2022/02/05 15:11:25;;;;;;;0.20;0.20;;;;;;;;;;5031748;28;20025;-78
2022/02/05 15:13:59;;;;;;;0.00;0.00;;;;;;;;;;5030601;28;20021;-78
2022/02/05 15:16:26;;;;;;;0.10;0.10;;;;;;;;;;5028520;28;20028;-74
2022/02/05 15:18:53;;;;;;;0.00;0.00;;;;;;;;;;5024079;28;20033;-74
2022/02/05 15:21:23;;;;;;;0.10;0.10;;;;;;;;;;5029808;28;20021;-73
2022/02/05 15:23:49;;;;;;;0.90;0.35;;;;;;;;;;5027860;28;20075;-74
2022/02/05 15:26:16;;;;;;;2.45;0.70;;;;;;;;;;5035227;28;20021;-74
2022/02/05 15:28:43;;;;;;;0.20;0.20;;;;;;;;;;5025973;28;20034;-75
2022/02/05 15:31:09;;;;;;;0.10;0.10;;;;;;;;;;5030855;28;20021;-73
2022/02/05 15:33:41;;;;;;;0.00;0.00;;;;;;;;;;5022378;28;20361;-74
2022/02/05 15:36:08;;;;;;;0.65;0.40;;;;;;;;;;5035227;28;20151;-83
2022/02/05 15:38:44;;;;;;;0.10;0.10;;;;;;;;;;5032491;28;20072;-73
2022/02/05 15:43:55;;;;;;;0.10;0.10;;;;;;;;;;5021232;28;20169;-75
2022/02/05 15:46:21;;;;;;;0.50;0.50;;;;;;;;;;5027281;28;20021;-73
2022/02/05 15:48:48;;;;;;;0.10;0.10;;;;;;;;;;5024330;28;20400;-75
2022/02/05 15:51:14;;;;;;;0.10;0.10;;;;;;;;;;5031045;28;20351;-75
2022/02/05 15:53:54;;;;;;;0.95;0.95;;;;;;;;;;5019977;28;20045;-74
2022/02/05 15:56:34;;;;;;;0.10;0.10;;;;;;;;;;5025198;28;20025;-73
2022/02/05 15:59:02;;;;;;;0.40;0.40;;;;;;;;;;5018347;28;20057;-74
2022/02/05 16:01:28;;;;;;;0.10;0.10;;;;;;;;;;5026284;28;20490;-74
2022/02/05 16:03:54;;;;;;;0.00;0.00;;;;;;;;;;5029358;28;20033;-73
2022/02/05 16:06:20;;;;;;;3.50;0.80;;;;;;;;;;5023267;28;20484;-77
2022/02/05 16:08:46;;;;;;;0.28;0.28;;;;;;;;;;5026579;28;20029;-73
2022/02/05 16:11:12;;;;;;;0.20;0.20;;;;;;;;;;5022709;28;20723;-74
2022/02/05 16:13:38;;;;;;;0.05;0.05;;;;;;;;;;5025598;28;20517;-75
2022/02/05 16:16:04;;;;;;;1.88;0.88;;;;;;;;;;5028480;28;20056;-74
2022/02/05 16:18:31;;;;;;;0.00;0.00;;;;;;;;;;5024722;28;20098;-81
2022/02/05 16:20:57;;;;;;;0.00;0.00;;;;;;;;;;5021255;28;20101;-75
2022/02/05 16:23:23;;;;;;;2.20;1.08;;;;;;;;;;5029163;28;21948;-74
2022/02/05 16:25:49;;;;;;;0.00;0.00;;;;;;;;;;5011224;28;20120;-74
2022/02/05 16:28:14;;;;;;;19.65;1.45;;;;;;;;;;5029340;28;20073;-74
2022/02/05 16:30:41;;;;;;;0.28;0.28;;;;;;;;;;5027049;28;20025;-81
2022/02/05 16:33:15;;;;;;;0.00;0.00;;;;;;;;;;5028483;28;20021;-74
2022/02/05 16:35:54;;;;;;;0.35;0.35;;;;;;;;;;5019020;28;20080;-76
2022/02/05 16:38:32;;;;;;;0.00;0.00;;;;;;;;;;5021684;28;20436;-79
2022/02/05 16:41:00;;;;;;;0.10;0.10;;;;;;;;;;5027144;28;20029;-74
2022/02/05 16:43:26;;;;;;;0.10;0.10;;;;;;;;;;5017396;28;20111;-74
2022/02/05 16:45:53;;;;;;;0.20;0.20;;;;;;;;;;5024716;28;20179;-74
2022/02/05 16:48:19;;;;;;;0.00;0.00;;;;;;;;;;5025952;28;20798;-73
2022/02/05 16:50:45;;;;;;;0.47;0.47;;;;;;;;;;5024007;28;20076;-74
2022/02/05 16:53:13;;;;;;;0.20;0.20;;;;;;;;;;5008444;28;20049;-73
2022/02/05 16:55:39;;;;;;;0.70;0.70;;;;;;;;;;5011356;28;20026;-75
2022/02/05 16:58:06;;;;;;;0.00;0.00;;;;;;;;;;5006573;28;20260;-75
2022/02/05 17:00:35;;;;;;;0.20;0.20;;;;;;;;;;5015254;28;20030;-74
2022/02/05 17:03:04;;;;;;;0.52;0.52;;;;;;;;;;5004701;28;20175;-74
2022/02/05 17:05:32;;;;;;;0.10;0.10;;;;;;;;;;5006202;28;20061;-74
2022/02/05 17:07:59;;;;;;;0.10;0.10;;;;;;;;;;5002169;28;20168;-71
2022/02/05 17:10:27;;;;;;;0.22;0.22;;;;;;;;;;5004771;28;20037;-75
2022/02/05 17:12:53;;;;;;;0.20;0.20;;;;;;;;;;5003772;28;20479;-76
2022/02/05 17:15:22;;;;;;;8.40;1.17;;;;;;;;;;4998399;28;20758;-75
2022/02/05 17:17:56;;;;;;;0.20;0.20;;;;;;;;;;5001838;28;20507;-74
2022/02/05 17:20:28;;;;;;;4.28;0.43;;;;;;;;;;5010641;28;20025;-73
2022/02/05 17:22:56;;;;;;;0.05;0.05;;;;;;;;;;5004541;28;20033;-75
2022/02/05 17:25:22;;;;;;;0.00;0.00;;;;;;;;;;5013112;28;20057;-75
2022/02/05 17:27:48;;;;;;;0.10;0.10;;;;;;;;;;5006928;28;20412;-72
2022/02/05 17:30:13;;;;;;;0.17;0.17;;;;;;;;;;5005587;28;20477;-73
2022/02/05 17:32:44;;;;;;;0.15;0.15;;;;;;;;;;5008933;28;20026;-73